Time;durP1;ratioP1;P1;durP2;ratioP2;P2;SDS_P1;SDS_P2;PMS_P1;PMS_P2;Temp;Humidity;BMP_temperature;BMP_pressure;BME280_temperature;BME280_humidity;BME280_pressure;Samples;Min_cycle;Max_cycle;Signal;HPM_P1;HPM_P2
2022/01/11 00:01:33;;;;;;;38.83;20.20;;;;;;;;;;782405;177;919980;-66
2022/01/11 00:03:59;;;;;;;47.17;21.20;;;;;;;;;;784961;177;919239;-66
2022/01/11 00:06:46;;;;;;;48.37;21.90;;;;;;;;;;777655;177;1020500;-65
2022/01/11 00:09:18;;;;;;;45.37;20.03;;;;;;;;;;781519;176;1020499;-67
2022/01/11 00:11:33;;;;;;;35.13;16.53;;;;;;;;;;789063;177;919603;-65
2022/01/11 00:13:59;;;;;;;39.17;19.00;;;;;;;;;;767801;181;918041;-66
2022/01/11 00:16:25;;;;;;;51.97;20.13;;;;;;;;;;747542;182;918834;-66
2022/01/11 00:18:50;;;;;;;40.03;19.17;;;;;;;;;;791065;176;918059;-65
2022/01/11 00:21:16;;;;;;;39.53;23.23;;;;;;;;;;793321;176;918225;-66
2022/01/11 00:26:23;;;;;;;28.83;15.30;;;;;;;;;;778323;176;1021340;-66
2022/01/11 00:28:49;;;;;;;39.53;18.30;;;;;;;;;;778689;179;918266;-65
2022/01/11 00:31:15;;;;;;;52.53;22.50;;;;;;;;;;782866;177;919108;-67
2022/01/11 00:33:44;;;;;;;41.70;20.33;;;;;;;;;;780228;176;919389;-66
2022/01/11 00:36:07;;;;;;;36.07;17.50;;;;;;;;;;774944;176;1840817;-66
2022/01/11 00:38:33;;;;;;;29.60;15.77;;;;;;;;;;771799;181;1020587;-66
2022/01/11 00:40:59;;;;;;;30.57;17.43;;;;;;;;;;773735;182;628046;-66
2022/01/11 00:43:25;;;;;;;34.10;16.90;;;;;;;;;;787693;177;693332;-66
2022/01/11 00:45:51;;;;;;;34.22;17.95;;;;;;;;;;782525;178;918909;-65
2022/01/11 00:48:17;;;;;;;49.17;24.10;;;;;;;;;;770881;178;918632;-66
2022/01/11 00:50:43;;;;;;;28.80;16.67;;;;;;;;;;769936;179;920103;-65
2022/01/11 00:53:09;;;;;;;42.50;18.10;;;;;;;;;;748496;182;919851;-67
2022/01/11 00:55:35;;;;;;;40.70;18.43;;;;;;;;;;774505;177;919539;-66
2022/01/11 00:58:02;;;;;;;32.30;16.93;;;;;;;;;;779503;179;919058;-65
2022/01/11 01:00:26;;;;;;;43.40;23.47;;;;;;;;;;779729;177;919794;-66
2022/01/11 01:02:52;;;;;;;41.03;20.30;;;;;;;;;;785054;177;919834;-66
2022/01/11 01:05:18;;;;;;;36.77;17.70;;;;;;;;;;779691;177;917363;-67
2022/01/11 01:07:44;;;;;;;33.40;20.53;;;;;;;;;;777479;177;1018876;-65
2022/01/11 01:10:35;;;;;;;27.47;15.80;;;;;;;;;;784407;177;915573;-66
2022/01/11 01:12:54;;;;;;;46.40;23.10;;;;;;;;;;782986;180;918831;-67
2022/01/11 01:15:20;;;;;;;33.23;15.00;;;;;;;;;;775938;180;918896;-67
2022/01/11 01:17:46;;;;;;;45.80;19.87;;;;;;;;;;776885;177;919013;-67
2022/01/11 01:20:11;;;;;;;48.07;20.37;;;;;;;;;;779656;177;919373;-66
2022/01/11 01:22:37;;;;;;;48.57;22.97;;;;;;;;;;771851;180;919938;-65
2022/01/11 01:25:03;;;;;;;36.80;19.20;;;;;;;;;;767651;180;920130;-66
2022/01/11 01:27:30;;;;;;;38.00;19.77;;;;;;;;;;767242;182;917565;-66
2022/01/11 01:29:55;;;;;;;44.37;20.17;;;;;;;;;;767640;183;918598;-66
2022/01/11 01:32:21;;;;;;;48.20;21.23;;;;;;;;;;786122;176;918765;-67
2022/01/11 01:34:49;;;;;;;45.75;20.50;;;;;;;;;;782691;176;922813;-65
2022/01/11 01:37:13;;;;;;;40.63;18.33;;;;;;;;;;786691;177;922719;-67
2022/01/11 01:39:39;;;;;;;46.43;21.00;;;;;;;;;;786776;176;634721;-66
2022/01/11 01:42:05;;;;;;;43.83;20.43;;;;;;;;;;785540;176;634782;-67
2022/01/11 01:44:32;;;;;;;51.50;23.47;;;;;;;;;;780792;176;921142;-67
2022/01/11 01:46:56;;;;;;;54.70;23.60;;;;;;;;;;788354;176;918569;-66
2022/01/11 01:49:23;;;;;;;40.20;20.17;;;;;;;;;;767637;181;918616;-66
2022/01/11 01:51:48;;;;;;;43.13;23.13;;;;;;;;;;781356;176;918942;-66
2022/01/11 01:54:14;;;;;;;42.47;20.37;;;;;;;;;;785194;177;919287;-66
2022/01/11 01:56:40;;;;;;;45.10;23.27;;;;;;;;;;777546;177;1020922;-65
2022/01/11 01:59:05;;;;;;;78.40;34.63;;;;;;;;;;781205;176;919512;-66
2022/01/11 02:01:37;;;;;;;45.00;21.13;;;;;;;;;;785642;177;1021593;-66
2022/01/11 02:03:58;;;;;;;38.47;19.17;;;;;;;;;;783059;177;919259;-65
2022/01/11 02:06:24;;;;;;;48.20;23.20;;;;;;;;;;785460;177;918201;-65
2022/01/11 02:08:50;;;;;;;94.67;35.67;;;;;;;;;;771042;180;915990;-65
2022/01/11 02:11:16;;;;;;;49.70;23.97;;;;;;;;;;786878;177;915798;-66
2022/01/11 02:13:42;;;;;;;55.00;24.57;;;;;;;;;;783766;177;915593;-66
2022/01/11 02:16:08;;;;;;;45.10;20.75;;;;;;;;;;781935;176;945341;-66
2022/01/11 02:18:34;;;;;;;43.03;20.50;;;;;;;;;;788080;177;627029;-66
2022/01/11 02:20:59;;;;;;;55.60;23.57;;;;;;;;;;782918;176;918952;-67
2022/01/11 02:23:25;;;;;;;24.83;13.20;;;;;;;;;;780521;176;919584;-65
2022/01/11 02:25:51;;;;;;;48.33;23.20;;;;;;;;;;784982;178;989501;-66
2022/01/11 02:28:17;;;;;;;47.47;23.23;;;;;;;;;;780806;177;918975;-66
2022/01/11 02:30:43;;;;;;;69.37;28.33;;;;;;;;;;784357;177;918844;-65
2022/01/11 02:33:19;;;;;;;51.03;24.63;;;;;;;;;;787997;176;919825;-65
2022/01/11 02:35:34;;;;;;;37.63;18.20;;;;;;;;;;790409;175;919260;-65
2022/01/11 02:38:00;;;;;;;24.20;14.57;;;;;;;;;;785594;176;917992;-65
2022/01/11 02:40:26;;;;;;;58.50;27.30;;;;;;;;;;784975;177;918558;-66
2022/01/11 02:42:52;;;;;;;43.60;21.13;;;;;;;;;;786034;176;917958;-65
2022/01/11 02:45:18;;;;;;;44.77;22.80;;;;;;;;;;780237;176;919282;-67
2022/01/11 02:47:44;;;;;;;42.77;20.70;;;;;;;;;;780580;179;918348;-65
2022/01/11 02:50:10;;;;;;;38.80;19.57;;;;;;;;;;794216;176;621831;-65
2022/01/11 02:52:36;;;;;;;27.93;14.07;;;;;;;;;;779481;176;638427;-66
2022/01/11 02:55:02;;;;;;;42.27;20.77;;;;;;;;;;785327;176;636635;-67
2022/01/11 02:57:28;;;;;;;40.53;22.83;;;;;;;;;;780826;177;625433;-66
2022/01/11 02:59:54;;;;;;;39.73;21.37;;;;;;;;;;790637;175;917234;-67
2022/01/11 03:02:20;;;;;;;39.37;18.53;;;;;;;;;;790032;176;918971;-66
2022/01/11 03:04:46;;;;;;;40.20;17.50;;;;;;;;;;790359;176;918794;-66
2022/01/11 03:07:12;;;;;;;19.57;10.03;;;;;;;;;;781155;176;917325;-67
2022/01/11 03:09:56;;;;;;;36.60;17.30;;;;;;;;;;779900;177;918293;-66
2022/01/11 03:12:04;;;;;;;45.00;20.70;;;;;;;;;;778528;176;918760;-66
2022/01/11 03:14:30;;;;;;;33.60;17.90;;;;;;;;;;783925;176;918864;-66
2022/01/11 03:16:56;;;;;;;28.90;14.40;;;;;;;;;;781790;177;919134;-66
2022/01/11 03:19:22;;;;;;;25.83;12.87;;;;;;;;;;783635;176;919485;-66
2022/01/11 03:21:48;;;;;;;22.30;13.13;;;;;;;;;;780659;177;917979;-64
2022/01/11 03:24:14;;;;;;;30.33;16.60;;;;;;;;;;789102;176;917141;-66
2022/01/11 03:26:40;;;;;;;26.90;12.90;;;;;;;;;;789142;176;915856;-66
2022/01/11 03:29:05;;;;;;;42.00;22.80;;;;;;;;;;780967;177;916671;-66
2022/01/11 03:31:31;;;;;;;37.45;20.15;;;;;;;;;;784259;177;918146;-69
2022/01/11 03:33:57;;;;;;;28.17;15.63;;;;;;;;;;780559;179;918912;-67
2022/01/11 03:36:23;;;;;;;42.30;18.67;;;;;;;;;;779005;179;918905;-67
2022/01/11 03:38:49;;;;;;;29.93;15.30;;;;;;;;;;787207;177;918847;-67
2022/01/11 03:41:14;;;;;;;22.70;13.37;;;;;;;;;;783179;176;919011;-67
2022/01/11 03:43:40;;;;;;;32.63;17.75;;;;;;;;;;779085;177;918658;-68
2022/01/11 03:46:06;;;;;;;24.90;14.10;;;;;;;;;;780105;176;918279;-67
2022/01/11 03:48:32;;;;;;;33.27;18.70;;;;;;;;;;783347;176;1022411;-67
2022/01/11 03:50:58;;;;;;;34.07;16.90;;;;;;;;;;783391;177;919257;-67
2022/01/11 03:53:29;;;;;;;33.33;16.80;;;;;;;;;;777778;180;919531;-67
2022/01/11 03:56:10;;;;;;;34.60;20.45;;;;;;;;;;782595;177;919468;-67
2022/01/11 03:58:28;;;;;;;42.13;20.63;;;;;;;;;;779396;176;918885;-67
2022/01/11 04:00:52;;;;;;;31.13;17.30;;;;;;;;;;772260;179;919324;-67
2022/01/11 04:03:18;;;;;;;27.60;15.33;;;;;;;;;;781073;176;915444;-67
2022/01/11 04:05:44;;;;;;;21.67;12.53;;;;;;;;;;773614;181;916635;-67
2022/01/11 04:08:09;;;;;;;31.23;15.40;;;;;;;;;;770178;180;918049;-67
2022/01/11 04:10:35;;;;;;;27.63;14.50;;;;;;;;;;775839;176;916526;-68
2022/01/11 04:13:01;;;;;;;21.20;9.37;;;;;;;;;;772647;180;923901;-66
2022/01/11 04:15:27;;;;;;;27.70;16.67;;;;;;;;;;780705;176;918525;-68
2022/01/11 04:17:53;;;;;;;32.60;15.38;;;;;;;;;;771863;179;915772;-67
2022/01/11 04:20:22;;;;;;;21.27;11.83;;;;;;;;;;794114;176;915931;-67
2022/01/11 04:22:46;;;;;;;20.10;12.23;;;;;;;;;;786467;176;914773;-68
2022/01/11 04:25:11;;;;;;;34.07;17.77;;;;;;;;;;766435;179;916390;-67
2022/01/11 04:27:37;;;;;;;28.40;13.13;;;;;;;;;;782279;176;920677;-65
2022/01/11 04:30:03;;;;;;;33.30;18.40;;;;;;;;;;793799;176;919091;-68
2022/01/11 04:32:30;;;;;;;23.35;9.55;;;;;;;;;;782653;176;1226419;-69
2022/01/11 04:34:55;;;;;;;20.67;13.77;;;;;;;;;;787966;176;919066;-67
2022/01/11 04:37:20;;;;;;;17.53;12.07;;;;;;;;;;775242;180;920040;-67
2022/01/11 04:39:46;;;;;;;18.90;11.30;;;;;;;;;;779548;176;918956;-68
2022/01/11 04:42:12;;;;;;;50.50;24.03;;;;;;;;;;779088;177;918879;-68
2022/01/11 04:44:38;;;;;;;51.03;24.97;;;;;;;;;;784603;177;939603;-67
2022/01/11 04:47:04;;;;;;;32.37;14.47;;;;;;;;;;777035;177;992716;-67
2022/01/11 04:49:30;;;;;;;25.20;14.87;;;;;;;;;;778356;177;915951;-67
2022/01/11 04:51:56;;;;;;;25.10;11.87;;;;;;;;;;781424;177;918672;-67
2022/01/11 04:54:22;;;;;;;43.17;23.10;;;;;;;;;;778989;179;920601;-68
2022/01/11 04:56:48;;;;;;;29.43;14.80;;;;;;;;;;787607;176;919257;-68
2022/01/11 04:59:14;;;;;;;26.07;12.40;;;;;;;;;;787540;176;1020890;-68
2022/01/11 05:01:40;;;;;;;21.98;11.57;;;;;;;;;;786708;176;918178;-68
2022/01/11 05:04:05;;;;;;;37.67;19.03;;;;;;;;;;781165;176;919151;-68
2022/01/11 05:06:31;;;;;;;26.87;15.00;;;;;;;;;;783143;174;919099;-68
2022/01/11 05:08:57;;;;;;;44.83;20.20;;;;;;;;;;787260;176;919035;-68
2022/01/11 05:11:23;;;;;;;20.63;11.50;;;;;;;;;;781858;176;918541;-68
2022/01/11 05:13:49;;;;;;;25.73;12.17;;;;;;;;;;780121;176;919055;-68
2022/01/11 05:16:15;;;;;;;33.00;16.37;;;;;;;;;;785156;176;917835;-67
2022/01/11 05:18:40;;;;;;;52.83;19.27;;;;;;;;;;785093;176;624887;-68
2022/01/11 05:21:06;;;;;;;27.47;13.80;;;;;;;;;;782845;176;918273;-68
2022/01/11 05:23:34;;;;;;;21.57;10.63;;;;;;;;;;779959;176;918030;-67
2022/01/11 05:25:58;;;;;;;71.45;27.33;;;;;;;;;;786491;176;920229;-68
2022/01/11 05:28:24;;;;;;;40.77;25.13;;;;;;;;;;774842;176;918404;-67
2022/01/11 05:30:50;;;;;;;16.13;8.60;;;;;;;;;;784158;177;815611;-68
2022/01/11 05:33:15;;;;;;;21.30;11.83;;;;;;;;;;790664;176;639073;-69
2022/01/11 05:35:41;;;;;;;44.87;17.10;;;;;;;;;;780129;177;919254;-68
2022/01/11 05:38:07;;;;;;;30.80;15.50;;;;;;;;;;780987;176;919416;-68
2022/01/11 05:40:33;;;;;;;25.03;13.80;;;;;;;;;;784922;176;919207;-68
2022/01/11 05:42:59;;;;;;;19.53;11.20;;;;;;;;;;777963;176;919348;-68
2022/01/11 05:45:25;;;;;;;12.00;6.03;;;;;;;;;;777796;177;920879;-69
2022/01/11 05:47:52;;;;;;;18.87;11.10;;;;;;;;;;777837;177;919270;-69
2022/01/11 05:50:17;;;;;;;11.97;7.37;;;;;;;;;;777144;180;918954;-69
2022/01/11 05:52:43;;;;;;;27.23;13.00;;;;;;;;;;781445;178;623447;-69
2022/01/11 05:55:09;;;;;;;33.40;14.97;;;;;;;;;;790891;177;628812;-69
2022/01/11 05:57:35;;;;;;;20.37;10.20;;;;;;;;;;778253;180;617014;-69
2022/01/11 06:00:01;;;;;;;29.40;16.23;;;;;;;;;;782524;176;920115;-68
2022/01/11 06:02:26;;;;;;;25.65;11.65;;;;;;;;;;781368;177;918945;-69
2022/01/11 06:04:52;;;;;;;27.40;14.73;;;;;;;;;;787111;177;919436;-69
2022/01/11 06:07:18;;;;;;;35.43;15.80;;;;;;;;;;782781;176;919247;-69
2022/01/11 06:09:44;;;;;;;26.30;16.00;;;;;;;;;;779288;177;1124111;-69
2022/01/11 06:12:10;;;;;;;15.27;10.13;;;;;;;;;;779388;178;918658;-68
2022/01/11 06:14:36;;;;;;;23.42;8.77;;;;;;;;;;778713;179;918638;-68
2022/01/11 06:17:02;;;;;;;22.97;13.17;;;;;;;;;;779280;176;919741;-68
2022/01/11 06:19:27;;;;;;;24.57;14.60;;;;;;;;;;782675;176;982665;-67
2022/01/11 06:21:53;;;;;;;27.10;12.30;;;;;;;;;;766151;180;918469;-68
2022/01/11 06:24:19;;;;;;;43.93;20.23;;;;;;;;;;782378;176;919666;-69
2022/01/11 06:26:45;;;;;;;27.33;13.73;;;;;;;;;;783062;176;920573;-69
2022/01/11 06:29:11;;;;;;;31.33;15.43;;;;;;;;;;790252;176;920932;-68
2022/01/11 06:31:37;;;;;;;27.47;15.00;;;;;;;;;;772969;176;921792;-69
2022/01/11 06:34:02;;;;;;;18.07;11.30;;;;;;;;;;780823;175;1120035;-69
2022/01/11 06:36:28;;;;;;;24.93;13.80;;;;;;;;;;773956;179;919322;-69
2022/01/11 06:38:54;;;;;;;42.20;18.70;;;;;;;;;;767563;180;1032880;-69
2022/01/11 06:41:20;;;;;;;42.83;21.77;;;;;;;;;;779485;176;923481;-69
2022/01/11 06:43:46;;;;;;;32.03;13.77;;;;;;;;;;779187;177;1020545;-68
2022/01/11 06:46:12;;;;;;;32.90;18.07;;;;;;;;;;788569;177;913736;-70
2022/01/11 06:48:38;;;;;;;39.03;19.63;;;;;;;;;;775927;177;917993;-69
2022/01/11 06:51:03;;;;;;;44.43;18.30;;;;;;;;;;782584;176;910654;-70
2022/01/11 06:53:31;;;;;;;16.00;9.43;;;;;;;;;;772433;180;912700;-70
2022/01/11 06:55:55;;;;;;;76.97;30.60;;;;;;;;;;772108;180;625004;-70
2022/01/11 06:58:21;;;;;;;28.73;10.40;;;;;;;;;;792935;176;671213;-69
2022/01/11 07:00:47;;;;;;;33.83;12.73;;;;;;;;;;773247;181;949699;-69
2022/01/11 07:03:15;;;;;;;25.33;11.10;;;;;;;;;;756218;184;625132;-70
2022/01/11 07:05:39;;;;;;;24.33;12.30;;;;;;;;;;753533;184;613475;-70
2022/01/11 07:08:04;;;;;;;32.87;14.97;;;;;;;;;;782489;177;918802;-70
2022/01/11 07:10:30;;;;;;;29.10;12.67;;;;;;;;;;782847;177;919153;-69
2022/01/11 07:12:57;;;;;;;45.53;23.73;;;;;;;;;;783183;175;918633;-71
2022/01/11 07:15:22;;;;;;;21.03;11.40;;;;;;;;;;782238;177;997922;-70
2022/01/11 07:17:48;;;;;;;33.55;13.25;;;;;;;;;;782477;178;918526;-69
2022/01/11 07:20:14;;;;;;;30.10;17.33;;;;;;;;;;776498;178;919330;-70
2022/01/11 07:22:40;;;;;;;21.80;13.17;;;;;;;;;;779763;177;919229;-69
2022/01/11 07:25:06;;;;;;;25.37;15.80;;;;;;;;;;784598;177;919193;-70
2022/01/11 07:27:33;;;;;;;31.07;15.07;;;;;;;;;;780669;177;919974;-70
2022/01/11 07:29:57;;;;;;;28.17;17.43;;;;;;;;;;779425;175;1019886;-69
2022/01/11 07:32:23;;;;;;;57.40;23.77;;;;;;;;;;780475;176;918952;-68
2022/01/11 07:34:49;;;;;;;31.93;18.57;;;;;;;;;;786111;176;918465;-70
2022/01/11 07:37:16;;;;;;;22.20;13.60;;;;;;;;;;780486;178;919763;-69
2022/01/11 07:39:41;;;;;;;30.80;20.10;;;;;;;;;;779694;177;919168;-69
2022/01/11 07:42:07;;;;;;;33.57;19.87;;;;;;;;;;784940;176;918333;-69
2022/01/11 07:44:32;;;;;;;33.60;18.47;;;;;;;;;;778083;177;964677;-69
2022/01/11 07:46:58;;;;;;;22.20;13.57;;;;;;;;;;784863;177;917616;-70
2022/01/11 07:49:24;;;;;;;23.33;13.63;;;;;;;;;;788887;177;615990;-69
2022/01/11 07:51:50;;;;;;;37.40;20.77;;;;;;;;;;785939;177;633870;-69
2022/01/11 07:54:16;;;;;;;32.03;19.43;;;;;;;;;;785410;177;613583;-69
2022/01/11 07:56:42;;;;;;;36.83;19.77;;;;;;;;;;787728;180;617133;-70
2022/01/11 07:59:09;;;;;;;35.07;18.50;;;;;;;;;;782209;178;633092;-70
2022/01/11 08:01:33;;;;;;;39.43;18.10;;;;;;;;;;785556;177;626729;-69
2022/01/11 08:03:59;;;;;;;38.27;18.73;;;;;;;;;;783206;178;618912;-69
2022/01/11 08:06:26;;;;;;;26.30;16.40;;;;;;;;;;774268;180;698816;-69
2022/01/11 08:08:51;;;;;;;37.80;20.60;;;;;;;;;;790219;175;633039;-69
2022/01/11 08:11:17;;;;;;;13.87;7.83;;;;;;;;;;790404;175;637473;-70
2022/01/11 08:13:43;;;;;;;35.03;16.60;;;;;;;;;;793485;175;913864;-68
2022/01/11 08:16:08;;;;;;;32.77;18.40;;;;;;;;;;785749;176;637389;-69
2022/01/11 08:18:34;;;;;;;29.03;15.13;;;;;;;;;;784477;176;646085;-68
2022/01/11 08:21:00;;;;;;;21.17;13.73;;;;;;;;;;784819;177;914495;-68
2022/01/11 08:23:26;;;;;;;14.17;9.30;;;;;;;;;;786340;177;630746;-68
2022/01/11 08:25:52;;;;;;;26.12;13.68;;;;;;;;;;782536;177;919144;-67
2022/01/11 08:28:18;;;;;;;31.47;15.27;;;;;;;;;;783464;177;919183;-65
2022/01/11 08:30:43;;;;;;;28.57;13.27;;;;;;;;;;782819;177;632905;-65
2022/01/11 08:33:12;;;;;;;29.37;13.87;;;;;;;;;;783351;176;625369;-67
2022/01/11 08:35:35;;;;;;;33.43;17.53;;;;;;;;;;782378;177;621268;-64
2022/01/11 08:38:01;;;;;;;20.43;11.57;;;;;;;;;;781645;180;624897;-65
2022/01/11 08:40:27;;;;;;;39.03;20.47;;;;;;;;;;771714;179;919618;-64
2022/01/11 08:42:53;;;;;;;42.10;16.03;;;;;;;;;;787761;176;624099;-64
2022/01/11 08:45:19;;;;;;;32.87;20.33;;;;;;;;;;788775;176;614863;-65
2022/01/11 08:47:44;;;;;;;33.47;20.30;;;;;;;;;;787646;176;620963;-64
2022/01/11 08:50:11;;;;;;;40.47;21.17;;;;;;;;;;785473;176;630817;-64
2022/01/11 08:52:36;;;;;;;33.20;15.97;;;;;;;;;;777654;180;618012;-62
2022/01/11 08:55:02;;;;;;;20.70;12.53;;;;;;;;;;787200;176;629380;-62
2022/01/11 08:57:29;;;;;;;30.15;14.32;;;;;;;;;;783453;176;1029758;-63
2022/01/11 08:59:54;;;;;;;40.43;21.17;;;;;;;;;;784029;176;627107;-64
2022/01/11 09:02:21;;;;;;;36.13;20.83;;;;;;;;;;789410;178;626627;-64
2022/01/11 09:04:45;;;;;;;38.43;19.83;;;;;;;;;;783168;177;657142;-63
2022/01/11 09:07:11;;;;;;;37.22;21.15;;;;;;;;;;780316;177;919380;-63
2022/01/11 09:09:38;;;;;;;41.77;20.07;;;;;;;;;;787842;176;1021439;-64
2022/01/11 09:12:03;;;;;;;35.50;17.70;;;;;;;;;;794098;175;638120;-64
2022/01/11 09:14:29;;;;;;;25.67;16.40;;;;;;;;;;784356;177;918691;-64
2022/01/11 09:16:55;;;;;;;31.90;15.57;;;;;;;;;;785484;177;918976;-64
2022/01/11 09:19:21;;;;;;;19.13;10.60;;;;;;;;;;779761;177;617889;-64
2022/01/11 09:21:46;;;;;;;25.27;12.60;;;;;;;;;;790363;176;634323;-64
2022/01/11 09:24:12;;;;;;;19.57;11.53;;;;;;;;;;781274;177;623935;-65
2022/01/11 09:26:38;;;;;;;24.53;14.10;;;;;;;;;;776937;180;630698;-65
2022/01/11 09:29:04;;;;;;;18.90;11.30;;;;;;;;;;782900;179;625249;-65
2022/01/11 09:31:30;;;;;;;20.13;10.50;;;;;;;;;;784244;176;629117;-66
2022/01/11 09:33:56;;;;;;;13.83;8.30;;;;;;;;;;788614;177;614451;-66
2022/01/11 09:36:22;;;;;;;16.50;8.27;;;;;;;;;;791822;176;662339;-67
2022/01/11 09:38:48;;;;;;;16.70;10.50;;;;;;;;;;787332;176;633517;-68
2022/01/11 09:41:14;;;;;;;18.43;9.80;;;;;;;;;;787268;176;624478;-67
2022/01/11 09:43:41;;;;;;;11.60;7.23;;;;;;;;;;784176;176;648652;-68
2022/01/11 09:46:05;;;;;;;14.43;6.83;;;;;;;;;;785050;177;634602;-68
2022/01/11 09:48:32;;;;;;;19.87;9.70;;;;;;;;;;778742;177;640530;-68
2022/01/11 09:50:58;;;;;;;23.97;12.60;;;;;;;;;;786046;177;630853;-68
2022/01/11 09:53:24;;;;;;;14.18;8.75;;;;;;;;;;782118;177;919063;-67
2022/01/11 09:55:50;;;;;;;20.50;11.10;;;;;;;;;;784937;178;638104;-66
2022/01/11 09:58:16;;;;;;;16.70;8.77;;;;;;;;;;790675;176;616585;-66
2022/01/11 10:00:41;;;;;;;20.37;11.70;;;;;;;;;;786462;176;635694;-64
2022/01/11 10:03:07;;;;;;;12.57;7.90;;;;;;;;;;787287;177;619778;-66
2022/01/11 10:05:33;;;;;;;22.80;10.20;;;;;;;;;;795530;176;664976;-66
2022/01/11 10:07:59;;;;;;;21.13;9.03;;;;;;;;;;782556;177;633857;-66
2022/01/11 10:10:25;;;;;;;21.83;12.40;;;;;;;;;;769214;179;918200;-66
2022/01/11 10:12:51;;;;;;;26.83;15.17;;;;;;;;;;772099;179;683056;-65
2022/01/11 10:15:16;;;;;;;26.90;10.30;;;;;;;;;;778254;180;645045;-65
2022/01/11 10:17:42;;;;;;;30.40;14.23;;;;;;;;;;788111;176;636684;-65
2022/01/11 10:20:10;;;;;;;29.00;17.27;;;;;;;;;;786776;177;616580;-63
2022/01/11 10:22:36;;;;;;;41.23;15.23;;;;;;;;;;787514;177;630564;-65
2022/01/11 10:25:02;;;;;;;29.17;13.87;;;;;;;;;;790282;175;904343;-64
2022/01/11 10:27:29;;;;;;;15.53;11.00;;;;;;;;;;783743;176;681883;-65
2022/01/11 10:29:54;;;;;;;20.90;10.03;;;;;;;;;;790348;177;623402;-65
2022/01/11 10:32:22;;;;;;;26.37;15.80;;;;;;;;;;788357;177;635355;-68
2022/01/11 10:34:50;;;;;;;30.60;17.90;;;;;;;;;;776773;177;625381;-65
2022/01/11 10:37:16;;;;;;;27.90;11.90;;;;;;;;;;782811;177;913838;-65
2022/01/11 10:39:43;;;;;;;27.63;13.77;;;;;;;;;;785010;177;915729;-63
2022/01/11 10:42:08;;;;;;;22.10;12.00;;;;;;;;;;782822;177;646179;-65
2022/01/11 10:44:40;;;;;;;16.53;10.23;;;;;;;;;;769360;177;631460;-65
2022/01/11 10:47:06;;;;;;;37.77;17.07;;;;;;;;;;785699;176;637722;-63
2022/01/11 10:49:32;;;;;;;19.10;9.43;;;;;;;;;;769639;180;627055;-64
2022/01/11 10:52:03;;;;;;;65.40;30.60;;;;;;;;;;783312;177;631023;-65
2022/01/11 10:54:29;;;;;;;39.53;16.63;;;;;;;;;;776752;176;633242;-65
2022/01/11 10:56:55;;;;;;;24.03;11.57;;;;;;;;;;784373;176;624899;-65
2022/01/11 10:59:21;;;;;;;17.27;10.93;;;;;;;;;;783641;177;628538;-65
2022/01/11 11:01:48;;;;;;;25.23;13.03;;;;;;;;;;782245;177;629625;-65
2022/01/11 11:04:33;;;;;;;27.80;14.60;;;;;;;;;;784319;176;628928;-65
2022/01/11 11:07:05;;;;;;;45.13;18.90;;;;;;;;;;775040;179;631480;-65
2022/01/11 11:09:30;;;;;;;25.90;13.80;;;;;;;;;;786060;176;631599;-65
2022/01/11 11:12:02;;;;;;;27.30;15.90;;;;;;;;;;788081;176;918833;-65
2022/01/11 11:14:34;;;;;;;39.47;19.80;;;;;;;;;;784792;176;622328;-64
2022/01/11 11:17:00;;;;;;;40.67;19.83;;;;;;;;;;786088;176;632541;-64
2022/01/11 11:19:25;;;;;;;35.20;19.60;;;;;;;;;;790099;176;646111;-63
2022/01/11 11:21:51;;;;;;;36.90;20.53;;;;;;;;;;785024;176;620759;-65
2022/01/11 11:24:17;;;;;;;38.07;20.27;;;;;;;;;;785929;176;634334;-64
2022/01/11 11:26:45;;;;;;;19.80;12.70;;;;;;;;;;783869;177;631410;-63
2022/01/11 11:29:09;;;;;;;23.23;12.03;;;;;;;;;;779054;177;625521;-63
2022/01/11 11:31:35;;;;;;;26.83;12.60;;;;;;;;;;784819;176;638219;-64
2022/01/11 11:34:01;;;;;;;25.17;13.90;;;;;;;;;;788318;176;620144;-64
2022/01/11 11:36:26;;;;;;;28.57;11.20;;;;;;;;;;791557;176;627145;-62
2022/01/11 11:38:53;;;;;;;29.30;13.70;;;;;;;;;;796139;173;626594;-64
2022/01/11 11:41:19;;;;;;;39.23;20.17;;;;;;;;;;794273;175;636104;-64
2022/01/11 11:43:45;;;;;;;36.57;19.40;;;;;;;;;;786528;176;627839;-63
2022/01/11 11:46:11;;;;;;;31.27;17.20;;;;;;;;;;789057;176;630021;-63
2022/01/11 11:48:36;;;;;;;22.07;11.17;;;;;;;;;;787833;176;632571;-63
2022/01/11 11:51:03;;;;;;;29.47;15.10;;;;;;;;;;770330;180;633770;-63
2022/01/11 11:53:30;;;;;;;30.60;16.87;;;;;;;;;;789682;176;918043;-62
2022/01/11 11:56:03;;;;;;;22.17;13.00;;;;;;;;;;784547;177;656444;-63
2022/01/11 11:58:28;;;;;;;27.37;14.10;;;;;;;;;;785030;177;637828;-63
2022/01/11 12:00:53;;;;;;;26.73;18.00;;;;;;;;;;787850;176;613604;-63
2022/01/11 12:03:19;;;;;;;26.47;15.40;;;;;;;;;;789347;176;628743;-63
2022/01/11 12:05:47;;;;;;;19.17;10.17;;;;;;;;;;787855;176;640294;-63
2022/01/11 12:08:17;;;;;;;32.10;14.60;;;;;;;;;;787278;176;617028;-63
2022/01/11 12:10:47;;;;;;;16.00;9.37;;;;;;;;;;779990;180;629141;-62
2022/01/11 12:13:13;;;;;;;25.37;14.17;;;;;;;;;;791334;176;618902;-63
2022/01/11 12:15:39;;;;;;;33.90;19.77;;;;;;;;;;786126;176;636414;-64
2022/01/11 12:18:14;;;;;;;21.62;11.90;;;;;;;;;;776086;180;629071;-62
2022/01/11 12:20:40;;;;;;;23.57;11.57;;;;;;;;;;790912;176;617440;-63
2022/01/11 12:23:06;;;;;;;30.13;12.20;;;;;;;;;;783593;178;625362;-64
2022/01/11 12:25:37;;;;;;;33.53;18.67;;;;;;;;;;783274;176;744931;-63
2022/01/11 12:27:59;;;;;;;34.80;17.17;;;;;;;;;;787828;176;615152;-64
2022/01/11 12:30:26;;;;;;;32.60;16.00;;;;;;;;;;762357;182;631911;-63
2022/01/11 12:33:05;;;;;;;26.70;14.20;;;;;;;;;;783975;176;633316;-63
2022/01/11 12:35:31;;;;;;;21.00;14.07;;;;;;;;;;784633;176;671670;-65
2022/01/11 12:38:06;;;;;;;24.80;14.60;;;;;;;;;;785900;176;630385;-64
2022/01/11 12:40:38;;;;;;;30.47;13.00;;;;;;;;;;776843;181;625474;-64
2022/01/11 12:43:01;;;;;;;29.93;13.90;;;;;;;;;;781370;177;623123;-63
2022/01/11 12:45:35;;;;;;;30.70;14.10;;;;;;;;;;786401;177;613561;-63
2022/01/11 12:48:01;;;;;;;31.03;18.23;;;;;;;;;;781436;177;615162;-63
2022/01/11 12:50:27;;;;;;;32.80;18.63;;;;;;;;;;773791;181;632974;-64
2022/01/11 12:52:53;;;;;;;18.93;11.97;;;;;;;;;;755509;184;636321;-63
2022/01/11 12:55:19;;;;;;;20.23;11.80;;;;;;;;;;755289;184;627374;-66
2022/01/11 12:57:45;;;;;;;15.37;10.63;;;;;;;;;;791711;177;629539;-63
2022/01/11 13:00:11;;;;;;;28.90;14.97;;;;;;;;;;784047;176;650558;-64
2022/01/11 13:02:36;;;;;;;31.17;18.30;;;;;;;;;;782738;177;888557;-64
2022/01/11 13:05:04;;;;;;;37.53;20.17;;;;;;;;;;783820;177;635078;-63
2022/01/11 13:07:33;;;;;;;19.90;11.03;;;;;;;;;;792195;177;631466;-64
2022/01/11 13:10:00;;;;;;;19.47;12.70;;;;;;;;;;781749;176;918081;-64
2022/01/11 13:12:26;;;;;;;34.90;17.50;;;;;;;;;;774976;180;635063;-63
2022/01/11 13:14:56;;;;;;;28.73;14.60;;;;;;;;;;754199;184;621858;-63
2022/01/11 13:17:22;;;;;;;42.03;18.47;;;;;;;;;;762738;184;628027;-63
2022/01/11 13:19:48;;;;;;;39.83;22.40;;;;;;;;;;785952;176;626519;-64
2022/01/11 13:22:14;;;;;;;38.20;21.70;;;;;;;;;;782850;177;637285;-65
2022/01/11 13:24:46;;;;;;;21.60;12.93;;;;;;;;;;786604;177;635904;-64
2022/01/11 13:27:13;;;;;;;34.37;18.90;;;;;;;;;;789313;176;628404;-64
2022/01/11 13:29:37;;;;;;;46.40;22.40;;;;;;;;;;773198;179;627708;-63
2022/01/11 13:32:03;;;;;;;59.30;26.03;;;;;;;;;;762303;181;629769;-64
2022/01/11 13:34:29;;;;;;;38.27;17.90;;;;;;;;;;783369;176;647050;-64
2022/01/11 13:36:55;;;;;;;31.27;16.67;;;;;;;;;;785342;176;635234;-64
2022/01/11 13:39:22;;;;;;;41.83;20.53;;;;;;;;;;782970;177;676052;-65
2022/01/11 13:41:48;;;;;;;42.90;21.33;;;;;;;;;;789804;176;623564;-64
2022/01/11 13:44:13;;;;;;;28.37;15.00;;;;;;;;;;785143;176;630009;-64
2022/01/11 13:46:39;;;;;;;41.37;22.53;;;;;;;;;;786100;176;755879;-63
2022/01/11 13:49:07;;;;;;;30.17;16.50;;;;;;;;;;789376;177;630612;-64
2022/01/11 13:51:31;;;;;;;27.40;15.30;;;;;;;;;;785313;176;643722;-64
2022/01/11 13:53:58;;;;;;;36.93;18.57;;;;;;;;;;780844;176;786166;-63
2022/01/11 13:56:24;;;;;;;26.50;15.77;;;;;;;;;;788745;177;631304;-63
2022/01/11 13:58:49;;;;;;;28.00;17.77;;;;;;;;;;784525;179;620111;-64
2022/01/11 14:01:15;;;;;;;30.20;18.40;;;;;;;;;;786377;176;615188;-64